createdAt,value
2018-10-01T00:00:58.925Z,0
2018-10-01T00:01:59.171Z,0
2018-10-01T00:02:59.159Z,0
2018-10-01T00:03:59.400Z,0
2018-10-01T00:04:59.130Z,0
2018-10-01T00:05:59.382Z,0
2018-10-01T00:06:59.362Z,0
2018-10-01T00:07:59.361Z,0
2018-10-01T00:08:59.083Z,0
2018-10-01T00:09:59.376Z,0
2018-10-01T00:10:59.310Z,0
2018-10-01T00:11:59.297Z,0
2018-10-01T00:12:59.280Z,0
2018-10-01T00:13:59.270Z,0
2018-10-01T00:14:59.255Z,0
2018-10-01T00:15:59.244Z,0
2018-10-01T00:16:58.973Z,0
2018-10-01T00:17:59.223Z,0
2018-10-01T00:18:59.257Z,0
2018-10-01T00:19:59.237Z,0
2018-10-01T00:20:59.185Z,0
2018-10-01T00:21:59.165Z,0
2018-10-01T00:22:59.163Z,0
2018-10-01T00:23:59.151Z,0
2018-10-01T00:24:59.130Z,0
2018-10-01T00:25:58.864Z,0
2018-10-01T00:26:58.856Z,0
2018-10-01T00:27:58.840Z,0
2018-10-01T00:28:58.820Z,0
2018-10-01T00:29:59.098Z,0
2018-10-01T00:30:59.054Z,0
2018-10-01T00:31:58.795Z,0
2018-10-01T00:32:58.785Z,0
2018-10-01T00:33:59.025Z,0
2018-10-01T00:34:58.753Z,0
2018-10-01T00:35:58.992Z,0
2018-10-01T00:36:58.989Z,0
2018-10-01T00:37:58.972Z,0
2018-10-01T00:38:58.711Z,0
2018-10-01T00:39:58.694Z,0
2018-10-01T00:40:58.936Z,0
2018-10-01T00:41:58.930Z,0
2018-10-01T00:42:58.914Z,0
2018-10-01T00:43:58.644Z,0
2018-10-01T00:44:58.892Z,0
2018-10-01T00:45:58.621Z,0
2018-10-01T00:46:58.614Z,0
2018-10-01T00:47:58.858Z,0
2018-10-01T00:48:58.581Z,0
2018-10-01T00:49:58.825Z,0
2018-10-01T00:50:58.557Z,0
2018-10-01T00:51:58.598Z,0
2018-10-01T00:52:58.794Z,0
2018-10-01T00:53:58.526Z,0
2018-10-01T00:54:58.768Z,0
2018-10-01T00:55:58.498Z,0
2018-10-01T00:56:58.747Z,0
2018-10-01T00:57:58.223Z,0
2018-10-01T00:58:58.514Z,0
2018-10-01T00:59:58.455Z,0
2018-10-01T01:00:58.703Z,0
2018-10-01T01:01:58.422Z,0
2018-10-01T01:02:58.675Z,0
2018-10-01T01:03:58.661Z,0
2018-10-01T01:04:58.400Z,0
2018-10-01T01:05:58.646Z,0
2018-10-01T01:06:58.675Z,0
2018-10-01T01:07:58.616Z,0
2018-10-01T01:08:58.605Z,0
2018-10-01T01:09:58.591Z,0
2018-10-01T01:10:58.580Z,0
2018-10-01T01:11:58.571Z,0
2018-10-01T01:12:58.562Z,0
2018-10-01T01:13:58.544Z,0
2018-10-01T01:14:58.528Z,0
2018-10-01T01:15:58.522Z,0
2018-10-01T01:16:58.510Z,0
2018-10-01T01:17:58.240Z,0
2018-10-01T01:18:58.487Z,0
2018-10-01T01:19:58.219Z,0
2018-10-01T01:20:57.952Z,0
2018-10-01T01:21:58.189Z,0
2018-10-01T01:22:58.434Z,0
2018-10-01T01:23:58.171Z,0
2018-10-01T01:24:58.414Z,0
2018-10-01T01:25:58.402Z,0
2018-10-01T01:26:57.878Z,0
2018-10-01T01:27:58.381Z,0
2018-10-01T01:28:58.374Z,0
2018-10-01T01:29:58.356Z,0
2018-10-01T01:30:58.088Z,0
2018-10-01T01:31:58.333Z,0
2018-10-01T01:32:58.321Z,0
2018-10-01T01:33:58.315Z,0
2018-10-01T01:34:58.036Z,0
2018-10-01T01:35:58.032Z,0
2018-10-01T01:36:57.765Z,0
2018-10-01T01:37:58.264Z,0
2018-10-01T01:38:58.258Z,0
2018-10-01T01:39:58.247Z,0
2018-10-01T01:40:58.224Z,0
2018-10-01T01:41:58.219Z,0
2018-10-01T01:42:58.210Z,0
2018-10-01T01:43:58.192Z,0
2018-10-01T01:44:57.927Z,0
2018-10-01T01:45:58.195Z,0
2018-10-01T01:46:58.163Z,0
2018-10-01T01:47:57.896Z,0
2018-10-01T01:48:57.623Z,0
2018-10-01T01:49:58.128Z,0
2018-10-01T01:50:58.109Z,0
2018-10-01T01:51:58.104Z,0
2018-10-01T01:52:58.085Z,0
2018-10-01T01:53:58.073Z,0
2018-10-01T01:54:57.552Z,0
2018-10-01T01:55:57.800Z,0
2018-10-01T01:56:58.044Z,0
2018-10-01T01:57:58.027Z,0
2018-10-01T01:58:58.019Z,0
2018-10-01T01:59:58.025Z,0
2018-10-01T02:00:57.737Z,0
2018-10-01T02:01:57.983Z,0
2018-10-01T02:02:57.463Z,0
2018-10-01T02:03:57.709Z,0
2018-10-01T02:04:57.949Z,0
2018-10-01T02:05:57.932Z,0
2018-10-01T02:06:57.666Z,0
2018-10-01T02:07:57.909Z,0
2018-10-01T02:08:57.640Z,0
2018-10-01T02:09:57.630Z,0
2018-10-01T02:10:57.370Z,0
2018-10-01T02:11:57.607Z,0
2018-10-01T02:12:57.847Z,0
2018-10-01T02:13:57.842Z,0
2018-10-01T02:14:57.575Z,0
2018-10-01T02:15:57.566Z,0
2018-10-01T02:16:57.291Z,0
2018-10-01T02:17:57.273Z,0
2018-10-01T02:18:57.529Z,0
2018-10-01T02:19:57.507Z,0
2018-10-01T02:20:57.492Z,0
2018-10-01T02:21:57.747Z,0
2018-10-01T02:22:57.725Z,0
2018-10-01T02:23:57.461Z,0
2018-10-01T02:24:57.442Z,0
2018-10-01T02:25:57.437Z,0
2018-10-01T02:26:57.424Z,0
2018-10-01T02:27:57.153Z,0
2018-10-01T02:28:57.139Z,0
2018-10-01T02:29:57.635Z,0
2018-10-01T02:30:57.649Z,0
2018-10-01T02:31:57.362Z,0
2018-10-01T02:32:57.355Z,0
2018-10-01T02:33:57.600Z,0
2018-10-01T02:34:57.321Z,0
2018-10-01T02:35:57.571Z,0
2018-10-01T02:36:57.562Z,0
2018-10-01T02:37:57.314Z,0
2018-10-01T02:38:57.535Z,0
2018-10-01T02:39:57.256Z,0
2018-10-01T02:40:57.242Z,0
2018-10-01T02:41:57.232Z,0
2018-10-01T02:42:57.219Z,0
2018-10-01T02:43:57.470Z,0
2018-10-01T02:44:57.193Z,0
2018-10-01T02:45:57.425Z,0
2018-10-01T02:46:57.163Z,0
2018-10-01T02:47:57.571Z,0
2018-10-01T02:48:57.404Z,0
2018-10-01T02:49:57.381Z,0
2018-10-01T02:50:57.177Z,0
2018-10-01T02:51:57.352Z,0
2018-10-01T02:52:57.085Z,0
2018-10-01T02:53:57.336Z,0
2018-10-01T02:54:57.314Z,0
2018-10-01T02:55:57.053Z,0
2018-10-01T02:56:57.044Z,0
2018-10-01T02:57:57.016Z,0
2018-10-01T02:58:57.261Z,0
2018-10-01T02:59:57.250Z,0
2018-10-01T03:00:57.240Z,0
2018-10-01T03:01:57.228Z,0
2018-10-01T03:02:57.215Z,0
2018-10-01T03:03:56.938Z,0
2018-10-01T03:04:56.932Z,0
2018-10-01T03:05:57.174Z,0
2018-10-01T03:06:56.899Z,0
2018-10-01T03:07:56.885Z,0
2018-10-01T03:08:57.123Z,0
2018-10-01T03:09:57.157Z,0
2018-10-01T03:10:57.179Z,0
2018-10-01T03:11:56.831Z,0
2018-10-01T03:12:57.091Z,0
2018-10-01T03:13:56.803Z,0
2018-10-01T03:14:56.784Z,0
2018-10-01T03:15:57.042Z,0
2018-10-01T03:16:56.769Z,0
2018-10-01T03:17:57.002Z,0
2018-10-01T03:18:56.992Z,0
2018-10-01T03:19:56.729Z,0
2018-10-01T03:20:56.708Z,0
2018-10-01T03:21:56.689Z,0
2018-10-01T03:22:56.674Z,0
2018-10-01T03:23:56.663Z,0
2018-10-01T03:24:56.408Z,0
2018-10-01T03:25:56.890Z,0
2018-10-01T03:26:56.370Z,0
2018-10-01T03:27:56.355Z,0
2018-10-01T03:28:56.613Z,0
2018-10-01T03:29:56.589Z,0
2018-10-01T03:30:56.837Z,0
2018-10-01T03:31:56.815Z,0
2018-10-01T03:32:56.543Z,0
2018-10-01T03:33:56.272Z,0
2018-10-01T03:34:56.524Z,0
2018-10-01T03:35:56.766Z,0
2018-10-01T03:36:56.733Z,0
2018-10-01T03:37:56.472Z,0
2018-10-01T03:38:56.718Z,0
2018-10-01T03:39:56.503Z,0
2018-10-01T03:40:56.684Z,0
2018-10-01T03:41:56.667Z,0
2018-10-01T03:42:56.651Z,0
2018-10-01T03:43:56.645Z,0
2018-10-01T03:44:56.622Z,0
2018-10-01T03:45:56.607Z,0
2018-10-01T03:46:56.217Z,0
2018-10-01T03:47:56.339Z,0
2018-10-01T03:48:56.574Z,0
2018-10-01T03:49:56.297Z,0
2018-10-01T03:50:56.291Z,0
2018-10-01T03:51:56.521Z,0
2018-10-01T03:52:56.259Z,0
2018-10-01T03:53:56.497Z,0
2018-10-01T03:54:56.233Z,0
2018-10-01T03:55:56.558Z,0
2018-10-01T03:56:56.204Z,0
2018-10-01T03:57:56.447Z,0
2018-10-01T03:58:56.424Z,0
2018-10-01T03:59:56.406Z,0
2018-10-01T04:00:56.407Z,0
2018-10-01T04:01:56.124Z,0
2018-10-01T04:02:56.252Z,0
2018-10-01T04:03:55.582Z,0
2018-10-01T04:04:56.093Z,0
2018-10-01T04:05:56.334Z,0
2018-10-01T04:06:56.328Z,0
2018-10-01T04:07:56.303Z,0
2018-10-01T04:08:56.317Z,0
2018-10-01T04:09:56.268Z,0
2018-10-01T04:10:56.258Z,0
2018-10-01T04:11:56.008Z,0
2018-10-01T04:12:55.961Z,0
2018-10-01T04:13:55.957Z,0
2018-10-01T04:14:56.212Z,0
2018-10-01T04:15:56.177Z,0
2018-10-01T04:16:55.909Z,0
2018-10-01T04:17:56.152Z,0
2018-10-01T04:18:55.877Z,0
2018-10-01T04:19:55.864Z,0
2018-10-01T04:20:56.120Z,0
2018-10-01T04:21:55.839Z,0
2018-10-01T04:22:56.463Z,0
2018-10-01T04:23:55.545Z,0
2018-10-01T04:24:55.783Z,0
2018-10-01T04:25:55.520Z,0
2018-10-01T04:26:56.015Z,0
2018-10-01T04:27:55.997Z,0
2018-10-01T04:28:55.985Z,0
2018-10-01T04:29:55.717Z,0
2018-10-01T04:30:55.700Z,0
2018-10-01T04:31:55.946Z,0
2018-10-01T04:32:55.671Z,0
2018-10-01T04:33:55.724Z,0
2018-10-01T04:34:55.639Z,0
2018-10-01T04:35:55.628Z,0
2018-10-01T04:36:55.613Z,0
2018-10-01T04:37:55.594Z,0
2018-10-01T04:38:55.834Z,4
2018-10-01T04:39:55.568Z,4
2018-10-01T04:40:56.120Z,0
2018-10-01T04:41:55.800Z,0
2018-10-01T04:42:55.523Z,4
2018-10-01T04:43:55.759Z,0
2018-10-01T04:44:55.497Z,4
2018-10-01T04:45:55.490Z,0
2018-10-01T04:46:55.820Z,4
2018-10-01T04:47:55.448Z,4
2018-10-01T04:48:55.451Z,4
2018-10-01T04:49:55.166Z,8
2018-10-01T04:50:55.667Z,12
2018-10-01T04:51:55.652Z,12
2018-10-01T04:52:55.640Z,12
2018-10-01T04:53:55.621Z,16
2018-10-01T04:54:55.350Z,20
2018-10-01T04:55:55.332Z,24
2018-10-01T04:56:55.572Z,24
2018-10-01T04:57:55.625Z,32
2018-10-01T04:58:55.290Z,36
2018-10-01T04:59:55.533Z,40
2018-10-01T05:00:55.260Z,48
2018-10-01T05:01:54.986Z,52
2018-10-01T05:02:55.481Z,56
2018-10-01T05:03:55.470Z,64
2018-10-01T05:04:55.459Z,76
2018-10-01T05:05:55.466Z,84
2018-10-01T05:06:55.182Z,96
2018-10-01T05:07:55.419Z,108
2018-10-01T05:08:55.405Z,124
2018-10-01T05:09:55.382Z,136
2018-10-01T05:10:55.388Z,152
2018-10-01T05:11:55.356Z,164
2018-10-01T05:12:54.839Z,180
2018-10-01T05:13:55.070Z,192
2018-10-01T05:14:55.719Z,204
2018-10-01T05:15:55.296Z,220
2018-10-01T05:16:55.285Z,236
2018-10-01T05:17:55.013Z,248
2018-10-01T05:18:55.262Z,264
2018-10-01T05:19:54.472Z,284
2018-10-01T05:20:55.224Z,304
2018-10-01T05:21:55.209Z,320
2018-10-01T05:22:54.941Z,340
2018-10-01T05:23:55.187Z,360
2018-10-01T05:24:55.174Z,384
2018-10-01T05:25:54.919Z,412
2018-10-01T05:26:54.914Z,436
2018-10-01T05:27:54.611Z,460
2018-10-01T05:28:55.109Z,480
2018-10-01T05:29:55.096Z,500
2018-10-01T05:30:55.084Z,520
2018-10-01T05:31:54.811Z,548
2018-10-01T05:32:55.054Z,580
2018-10-01T05:33:55.043Z,612
2018-10-01T05:34:54.770Z,656
2018-10-01T05:35:54.507Z,700
2018-10-01T05:36:54.993Z,756
2018-10-01T05:37:55.006Z,824
2018-10-01T05:38:54.710Z,908
2018-10-01T05:39:54.950Z,1004
2018-10-01T05:40:54.949Z,1100
2018-10-01T05:41:54.664Z,1184
2018-10-01T05:42:54.932Z,1256
2018-10-01T05:43:54.900Z,1332
2018-10-01T05:44:54.632Z,1404
2018-10-01T05:45:54.877Z,1496
2018-10-01T05:46:54.864Z,1612
2018-10-01T05:47:54.587Z,1740
2018-10-01T05:48:54.570Z,1896
2018-10-01T05:49:54.817Z,2092
2018-10-01T05:50:54.814Z,2280
2018-10-01T05:51:54.791Z,2456
2018-10-01T05:52:54.256Z,2632
2018-10-01T05:53:54.768Z,2772
2018-10-01T05:54:54.512Z,2912
2018-10-01T05:55:54.511Z,3104
2018-10-01T05:56:54.465Z,3340
2018-10-01T05:57:55.095Z,3560
2018-10-01T05:58:54.683Z,3744
2018-10-01T05:59:54.730Z,3908
2018-10-01T06:00:54.415Z,4048
2018-10-01T06:01:54.393Z,4244
2018-10-01T06:02:54.382Z,4532
2018-10-01T06:03:54.369Z,4796
2018-10-01T06:04:54.627Z,4936
2018-10-01T06:05:54.598Z,4996
2018-10-01T06:06:54.338Z,5008
2018-10-01T06:07:54.312Z,4880
2018-10-01T06:08:54.295Z,4584
2018-10-01T06:09:54.542Z,4376
2018-10-01T06:10:54.528Z,4236
2018-10-01T06:11:54.377Z,4124
2018-10-01T06:12:53.994Z,4084
2018-10-01T06:13:54.495Z,4080
2018-10-01T06:14:54.473Z,4024
2018-10-01T06:15:54.210Z,3984
2018-10-01T06:16:54.192Z,3860
2018-10-01T06:17:54.438Z,3784
2018-10-01T06:18:53.919Z,3788
2018-10-01T06:19:54.422Z,3780
2018-10-01T06:20:54.402Z,3740
2018-10-01T06:21:54.386Z,3788
2018-10-01T06:22:54.131Z,3708
2018-10-01T06:23:54.106Z,3668
2018-10-01T06:24:54.345Z,3576
2018-10-01T06:25:54.333Z,3528
2018-10-01T06:26:53.813Z,3628
2018-10-01T06:27:54.057Z,3708
2018-10-01T06:28:54.305Z,3708
2018-10-01T06:29:54.291Z,3720
2018-10-01T06:30:54.024Z,3820
2018-10-01T06:31:54.002Z,3792
2018-10-01T06:32:53.993Z,3636
2018-10-01T06:33:53.987Z,3464
2018-10-01T06:34:53.968Z,3340
2018-10-01T06:35:54.218Z,3224
2018-10-01T06:36:53.943Z,3152
2018-10-01T06:37:53.962Z,3128
2018-10-01T06:38:54.183Z,3128
2018-10-01T06:39:53.907Z,3140
2018-10-01T06:40:54.168Z,3164
2018-10-01T06:41:53.944Z,3220
2018-10-01T06:42:54.137Z,3232
2018-10-01T06:43:54.114Z,3208
2018-10-01T06:44:53.852Z,3156
2018-10-01T06:45:54.089Z,3048
2018-10-01T06:46:53.314Z,2976
2018-10-01T06:47:54.070Z,2876
2018-10-01T06:48:53.807Z,2852
2018-10-01T06:49:53.530Z,2928
2018-10-01T06:50:54.236Z,3080
2018-10-01T06:51:53.505Z,3208
2018-10-01T06:52:53.745Z,3424
2018-10-01T06:53:53.996Z,3656
2018-10-01T06:54:53.733Z,3772
2018-10-01T06:55:53.978Z,3832
2018-10-01T06:56:53.948Z,3888
2018-10-01T06:57:53.940Z,4000
2018-10-01T06:58:53.933Z,4136
2018-10-01T06:59:53.923Z,4488
2018-10-01T07:00:53.648Z,4840
2018-10-01T07:01:53.636Z,5136
2018-10-01T07:02:53.876Z,5312
2018-10-01T07:03:53.869Z,5568
2018-10-01T07:04:53.854Z,5832
2018-10-01T07:05:55.091Z,6152
2018-10-01T07:06:53.634Z,6388
2018-10-01T07:07:53.596Z,6516
2018-10-01T07:08:53.566Z,6456
2018-10-01T07:09:53.282Z,6596
2018-10-01T07:10:53.527Z,6800
2018-10-01T07:11:53.263Z,6888
2018-10-01T07:12:53.505Z,7000
2018-10-01T07:13:53.829Z,7044
2018-10-01T07:14:52.968Z,7024
2018-10-01T07:15:53.722Z,6884
2018-10-01T07:16:54.036Z,6744
2018-10-01T07:17:53.438Z,6428
2018-10-01T07:18:53.725Z,6528
2018-10-01T07:19:53.170Z,6820
2018-10-01T07:20:53.406Z,7012
2018-10-01T07:21:53.139Z,7256
2018-10-01T07:22:54.094Z,7308
2018-10-01T07:23:53.630Z,7316
2018-10-01T07:24:53.618Z,7340
2018-10-01T07:25:53.604Z,7248
2018-10-01T07:26:53.341Z,7116
2018-10-01T07:27:53.589Z,7012
2018-10-01T07:28:53.316Z,6952
2018-10-01T07:29:53.560Z,7016
2018-10-01T07:30:53.038Z,7076
2018-10-01T07:31:53.540Z,6896
2018-10-01T07:32:53.526Z,6652
2018-10-01T07:33:53.512Z,6580
2018-10-01T07:34:53.509Z,6768
2018-10-01T07:35:52.983Z,7220
2018-10-01T07:36:52.715Z,7988
2018-10-01T07:37:53.474Z,8508
2018-10-01T07:38:53.625Z,8856
2018-10-01T07:39:53.461Z,8908
2018-10-01T07:40:53.434Z,8832
2018-10-01T07:41:53.168Z,8796
2018-10-01T07:42:53.417Z,8744
2018-10-01T07:43:53.409Z,8752
2018-10-01T07:44:53.800Z,8572
2018-10-01T07:45:53.405Z,8392
2018-10-01T07:46:53.148Z,8256
2018-10-01T07:47:53.108Z,8096
2018-10-01T07:48:52.884Z,8176
2018-10-01T07:49:52.833Z,8084
2018-10-01T07:50:53.665Z,7980
2018-10-01T07:51:53.369Z,7780
2018-10-01T07:52:53.061Z,7656
2018-10-01T07:53:53.068Z,7508
2018-10-01T07:54:53.080Z,7400
2018-10-01T07:55:52.765Z,7344
2018-10-01T07:56:53.008Z,7296
2018-10-01T07:57:52.998Z,7372
2018-10-01T07:58:53.239Z,7476
2018-10-01T07:59:53.767Z,7572
2018-10-01T08:00:53.218Z,7504
2018-10-01T08:01:53.216Z,7520
2018-10-01T08:02:53.222Z,7364
2018-10-01T08:03:53.190Z,7260
2018-10-01T08:04:52.925Z,7220
2018-10-01T08:05:53.170Z,7180
2018-10-01T08:06:52.894Z,7192
2018-10-01T08:07:53.150Z,7276
2018-10-01T08:08:52.883Z,7204
2018-10-01T08:09:52.617Z,7260
2018-10-01T08:10:53.116Z,7320
2018-10-01T08:11:52.852Z,7304
2018-10-01T08:12:53.104Z,7288
2018-10-01T08:13:52.575Z,7288
2018-10-01T08:14:53.077Z,7296
2018-10-01T08:15:53.464Z,7284
2018-10-01T08:16:53.052Z,7200
2018-10-01T08:17:53.047Z,7152
2018-10-01T08:18:52.779Z,7144
2018-10-01T08:19:53.030Z,7144
2018-10-01T08:20:52.757Z,7012
2018-10-01T08:21:53.006Z,6780
2018-10-01T08:22:52.742Z,6580
2018-10-01T08:23:52.987Z,6488
2018-10-01T08:24:52.468Z,6428
2018-10-01T08:25:52.712Z,6296
2018-10-01T08:26:52.958Z,6040
2018-10-01T08:27:52.948Z,5780
2018-10-01T08:28:52.928Z,5552
2018-10-01T08:29:53.007Z,5436
2018-10-01T08:30:52.660Z,5416
2018-10-01T08:31:52.646Z,5460
2018-10-01T08:32:53.078Z,5588
2018-10-01T08:33:52.884Z,5768
2018-10-01T08:34:52.889Z,5960
2018-10-01T08:35:52.612Z,6268
2018-10-01T08:36:52.602Z,6560
2018-10-01T08:37:52.145Z,6780
2018-10-01T08:38:52.738Z,6880
2018-10-01T08:39:52.827Z,7180
2018-10-01T08:40:52.560Z,7480
2018-10-01T08:41:52.548Z,7776
2018-10-01T08:42:52.804Z,7956
2018-10-01T08:43:52.784Z,8308
2018-10-01T08:44:52.794Z,8568
2018-10-01T08:45:52.771Z,8676
2018-10-01T08:46:52.769Z,8664
2018-10-01T08:47:52.493Z,8512
2018-10-01T08:48:52.738Z,8420
2018-10-01T08:49:52.479Z,8444
2018-10-01T08:50:52.717Z,8520
2018-10-01T08:51:52.429Z,8588
2018-10-01T08:52:52.734Z,8556
2018-10-01T08:53:52.435Z,8476
2018-10-01T08:54:52.427Z,8484
2018-10-01T08:55:52.161Z,8456
2018-10-01T08:56:52.412Z,8376
2018-10-01T08:57:52.404Z,8292
2018-10-01T08:58:52.391Z,8168
2018-10-01T08:59:52.645Z,7984
2018-10-01T09:00:52.627Z,7828
2018-10-01T09:01:52.107Z,7760
2018-10-01T09:02:52.351Z,7760
2018-10-01T09:03:52.592Z,7892
2018-10-01T09:04:52.334Z,7996
2018-10-01T09:05:52.064Z,8052
2018-10-01T09:06:52.519Z,8072
2018-10-01T09:07:52.304Z,8212
2018-10-01T09:08:52.296Z,8436
2018-10-01T09:09:52.283Z,8504
2018-10-01T09:10:52.287Z,8488
2018-10-01T09:11:52.274Z,8444
2018-10-01T09:12:52.255Z,8468
2018-10-01T09:13:52.509Z,8516
2018-10-01T09:14:52.752Z,8768
2018-10-01T09:15:52.225Z,8996
2018-10-01T09:16:51.966Z,9328
2018-10-01T09:17:52.213Z,9684
2018-10-01T09:18:52.201Z,10116
2018-10-01T09:19:51.942Z,10420
2018-10-01T09:20:52.449Z,10528
2018-10-01T09:21:52.182Z,10568
2018-10-01T09:22:52.435Z,10656
2018-10-01T09:23:51.904Z,10620
2018-10-01T09:24:52.152Z,10376
2018-10-01T09:25:52.140Z,10196
2018-10-01T09:26:51.917Z,10100
2018-10-01T09:27:51.611Z,10004
2018-10-01T09:28:52.371Z,9824
2018-10-01T09:29:52.113Z,9792
2018-10-01T09:30:52.488Z,9752
2018-10-01T09:31:51.836Z,9772
2018-10-01T09:32:52.341Z,9860
2018-10-01T09:33:51.560Z,9984
2018-10-01T09:34:52.067Z,9996
2018-10-01T09:35:52.308Z,9928
2018-10-01T09:36:52.052Z,9792
2018-10-01T09:37:52.291Z,9728
2018-10-01T09:38:52.294Z,9656
2018-10-01T09:39:52.286Z,9640
2018-10-01T09:40:52.266Z,9556
2018-10-01T09:41:52.003Z,9440
2018-10-01T09:42:52.251Z,9328
2018-10-01T09:43:51.989Z,9440
2018-10-01T09:44:51.979Z,9560
2018-10-01T09:45:52.230Z,9616
2018-10-01T09:46:52.222Z,9604
2018-10-01T09:47:52.017Z,9668
2018-10-01T09:48:51.943Z,9780
2018-10-01T09:49:52.193Z,9876
2018-10-01T09:50:52.193Z,9872
2018-10-01T09:51:51.663Z,9572
2018-10-01T09:52:51.914Z,9412
2018-10-01T09:53:52.217Z,8932
2018-10-01T09:54:52.153Z,8444
2018-10-01T09:55:51.629Z,8244
2018-10-01T09:56:52.130Z,7960
2018-10-01T09:57:52.126Z,8228
2018-10-01T09:58:52.113Z,8428
2018-10-01T09:59:52.108Z,8288
2018-10-01T10:00:52.097Z,8116
2018-10-01T10:01:51.847Z,8328
2018-10-01T10:02:51.828Z,8420
2018-10-01T10:03:51.908Z,8392
2018-10-01T10:04:52.526Z,8272
2018-10-01T10:05:51.818Z,8176
2018-10-01T10:06:52.055Z,8368
2018-10-01T10:07:52.036Z,8392
2018-10-01T10:08:51.773Z,8336
2018-10-01T10:09:51.768Z,8280
2018-10-01T10:10:52.021Z,8052
2018-10-01T10:11:51.495Z,7856
2018-10-01T10:12:51.746Z,7572
2018-10-01T10:13:51.740Z,7184
2018-10-01T10:14:51.477Z,6836
2018-10-01T10:15:51.973Z,6700
2018-10-01T10:16:52.953Z,6572
2018-10-01T10:17:51.814Z,6900
2018-10-01T10:18:51.953Z,7812
2018-10-01T10:19:51.687Z,8588
2018-10-01T10:20:51.927Z,9372
2018-10-01T10:21:51.973Z,10276
2018-10-01T10:22:51.661Z,10972
2018-10-01T10:23:51.912Z,11464
2018-10-01T10:24:51.898Z,11536
2018-10-01T10:25:51.644Z,11212
2018-10-01T10:26:51.631Z,10800
2018-10-01T10:27:51.610Z,10444
2018-10-01T10:28:51.863Z,10000
2018-10-01T10:29:51.597Z,9516
2018-10-01T10:30:51.843Z,9712
2018-10-01T10:31:51.840Z,10196
2018-10-01T10:32:51.835Z,10348
2018-10-01T10:33:51.570Z,10376
2018-10-01T10:34:51.303Z,10176
2018-10-01T10:35:51.549Z,10156
2018-10-01T10:36:51.288Z,10280
2018-10-01T10:37:51.789Z,10224
2018-10-01T10:38:51.792Z,10116
2018-10-01T10:39:51.771Z,9968
2018-10-01T10:40:51.766Z,9728
2018-10-01T10:41:52.197Z,9536
2018-10-01T10:42:51.242Z,8960
2018-10-01T10:43:51.485Z,8296
2018-10-01T10:44:51.735Z,7792
2018-10-01T10:45:51.724Z,7120
2018-10-01T10:46:51.725Z,6952
2018-10-01T10:47:51.709Z,7160
2018-10-01T10:48:51.705Z,7504
2018-10-01T10:49:51.436Z,7720
2018-10-01T10:50:51.697Z,7736
2018-10-01T10:51:51.161Z,7944
2018-10-01T10:52:51.667Z,8432
2018-10-01T10:53:51.658Z,8844
2018-10-01T10:54:51.697Z,9116
2018-10-01T10:55:51.645Z,10012
2018-10-01T10:56:51.465Z,10980
2018-10-01T10:57:51.625Z,11476
2018-10-01T10:58:51.364Z,10932
2018-10-01T10:59:51.355Z,10624
2018-10-01T11:00:51.098Z,10420
2018-10-01T11:01:51.604Z,9912
2018-10-01T11:02:51.328Z,9396
2018-10-01T11:03:51.323Z,9212
2018-10-01T11:04:51.318Z,9248
2018-10-01T11:05:51.557Z,9224
2018-10-01T11:06:51.557Z,9208
2018-10-01T11:07:51.553Z,9156
2018-10-01T11:08:51.299Z,9264
2018-10-01T11:09:51.531Z,9216
2018-10-01T11:10:51.532Z,9356
2018-10-01T11:11:51.001Z,9788
2018-10-01T11:12:51.513Z,10512
2018-10-01T11:13:51.612Z,11068
2018-10-01T11:14:51.954Z,11448
2018-10-01T11:15:50.985Z,11720
2018-10-01T11:16:51.218Z,11972
2018-10-01T11:17:51.760Z,12100
2018-10-01T11:18:52.325Z,11972
2018-10-01T11:19:51.929Z,11684
2018-10-01T11:20:51.777Z,11548
2018-10-01T11:21:52.112Z,11160
2018-10-01T11:22:51.486Z,11016
2018-10-01T11:23:51.433Z,10980
2018-10-01T11:24:50.905Z,10976
2018-10-01T11:25:50.895Z,10460
2018-10-01T11:26:51.360Z,10692
2018-10-01T11:27:51.967Z,11556
2018-10-01T11:28:51.741Z,10880
2018-10-01T11:29:51.378Z,9100
2018-10-01T11:30:51.368Z,7488
2018-10-01T11:31:52.564Z,6176
2018-10-01T11:32:51.101Z,5296
2018-10-01T11:33:51.587Z,4864
2018-10-01T11:34:51.412Z,5252
2018-10-01T11:35:51.331Z,5888
2018-10-01T11:36:51.330Z,6224
2018-10-01T11:37:51.075Z,5956
2018-10-01T11:38:50.801Z,6288
2018-10-01T11:39:51.422Z,6988
2018-10-01T11:40:51.296Z,7464
2018-10-01T11:41:51.036Z,7352
2018-10-01T11:42:51.278Z,6988
2018-10-01T11:43:51.353Z,6484
2018-10-01T11:44:50.754Z,5940
2018-10-01T11:45:51.967Z,5192
2018-10-01T11:46:50.998Z,4496
2018-10-01T11:47:50.733Z,4300
2018-10-01T11:48:50.981Z,4264
2018-10-01T11:49:51.266Z,4484
2018-10-01T11:50:50.964Z,4528
2018-10-01T11:51:51.528Z,4308
2018-10-01T11:52:50.951Z,4172
2018-10-01T11:53:50.942Z,4164
2018-10-01T11:54:50.677Z,4788
2018-10-01T11:55:50.930Z,5424
2018-10-01T11:56:50.656Z,5452
2018-10-01T11:57:51.234Z,4732
2018-10-01T11:58:50.897Z,3808
2018-10-01T11:59:50.892Z,3052
2018-10-01T12:00:51.142Z,2404
2018-10-01T12:01:50.876Z,2100
2018-10-01T12:02:50.863Z,2372
2018-10-01T12:03:50.849Z,3004
2018-10-01T12:04:50.848Z,3652
2018-10-01T12:05:51.107Z,4308
2018-10-01T12:06:51.091Z,5388
2018-10-01T12:07:50.819Z,6160
2018-10-01T12:08:50.813Z,6012
2018-10-01T12:09:51.274Z,5472
2018-10-01T12:10:51.057Z,4920
2018-10-01T12:11:51.165Z,4012
2018-10-01T12:12:51.052Z,3280
2018-10-01T12:13:51.032Z,2652
2018-10-01T12:14:51.063Z,1980
2018-10-01T12:15:51.734Z,1384
2018-10-01T12:16:50.735Z,940
2018-10-01T12:17:50.738Z,668
2018-10-01T12:18:50.463Z,552
2018-10-01T12:19:50.714Z,588
2018-10-01T12:20:50.959Z,740
2018-10-01T12:21:51.168Z,1088
2018-10-01T12:22:50.749Z,1344
2018-10-01T12:23:50.954Z,1568
2018-10-01T12:24:50.926Z,1892
2018-10-01T12:25:50.922Z,2208
2018-10-01T12:26:50.977Z,2404
2018-10-01T12:27:50.389Z,2584
2018-10-01T12:28:50.883Z,3088
2018-10-01T12:29:50.875Z,3640
2018-10-01T12:30:50.646Z,3636
2018-10-01T12:31:50.607Z,3480
2018-10-01T12:32:50.593Z,3468
2018-10-01T12:33:50.883Z,3100
2018-10-01T12:34:50.829Z,2512
2018-10-01T12:35:50.813Z,2044
2018-10-01T12:36:50.814Z,1876
2018-10-01T12:37:50.799Z,1600
2018-10-01T12:38:50.561Z,1256
2018-10-01T12:39:51.067Z,976
2018-10-01T12:40:50.769Z,828
2018-10-01T12:41:50.760Z,780
2018-10-01T12:42:50.817Z,904
2018-10-01T12:43:50.748Z,1396
2018-10-01T12:44:50.505Z,1964
2018-10-01T12:45:50.276Z,2188
2018-10-01T12:46:50.718Z,2116
2018-10-01T12:47:50.754Z,2084
2018-10-01T12:48:50.180Z,1888
2018-10-01T12:49:50.424Z,2008
2018-10-01T12:50:50.414Z,2304
2018-10-01T12:51:51.288Z,2128
2018-10-01T12:52:50.666Z,2060
2018-10-01T12:53:50.719Z,2556
2018-10-01T12:54:50.668Z,3240
2018-10-01T12:55:50.622Z,3384
2018-10-01T12:56:50.099Z,3096
2018-10-01T12:57:50.819Z,3000
2018-10-01T12:58:50.331Z,3016
2018-10-01T12:59:50.652Z,2528
2018-10-01T13:00:50.319Z,2208
2018-10-01T13:01:50.597Z,2400
2018-10-01T13:02:50.305Z,2460
2018-10-01T13:03:50.027Z,3404
2018-10-01T13:04:50.287Z,4688
2018-10-01T13:05:50.526Z,5284
2018-10-01T13:06:50.830Z,5888
2018-10-01T13:07:50.256Z,6384
2018-10-01T13:08:50.288Z,6904
2018-10-01T13:09:50.492Z,7188
2018-10-01T13:10:50.470Z,6576
2018-10-01T13:11:50.466Z,6248
2018-10-01T13:12:50.809Z,6056
2018-10-01T13:13:50.442Z,6076
2018-10-01T13:14:50.479Z,6044
2018-10-01T13:15:50.417Z,6464
2018-10-01T13:16:50.153Z,6560
2018-10-01T13:17:49.622Z,6756
2018-10-01T13:18:50.685Z,6092
2018-10-01T13:19:50.128Z,5564
2018-10-01T13:20:50.113Z,3996
2018-10-01T13:21:49.845Z,3392
2018-10-01T13:22:50.358Z,3184
2018-10-01T13:23:50.341Z,2576
2018-10-01T13:24:50.523Z,2220
2018-10-01T13:25:50.066Z,2872
2018-10-01T13:26:49.786Z,2896
2018-10-01T13:27:50.036Z,3288
2018-10-01T13:28:50.276Z,3088
2018-10-01T13:29:50.742Z,3096
2018-10-01T13:30:49.980Z,3112
2018-10-01T13:31:50.519Z,3348
2018-10-01T13:32:50.248Z,3716
2018-10-01T13:33:49.973Z,4120
2018-10-01T13:34:49.996Z,4216
2018-10-01T13:35:49.959Z,4600
2018-10-01T13:36:50.828Z,4284
2018-10-01T13:37:50.033Z,3676
2018-10-01T13:38:50.209Z,3300
2018-10-01T13:39:49.902Z,3212
2018-10-01T13:40:50.664Z,3180
2018-10-01T13:41:50.463Z,3300
2018-10-01T13:42:50.794Z,3368
2018-10-01T13:43:49.869Z,3072
2018-10-01T13:44:50.106Z,2636
2018-10-01T13:45:49.618Z,2404
2018-10-01T13:46:50.112Z,2036
2018-10-01T13:47:50.111Z,1788
2018-10-01T13:48:50.174Z,1664